Time;durP1;ratioP1;P1;durP2;ratioP2;P2;SDS_P1;SDS_P2;PMS_P1;PMS_P2;Temp;Humidity;BMP_temperature;BMP_pressure;BME280_temperature;BME280_humidity;BME280_pressure;Samples;Min_cycle;Max_cycle;Signal;HPM_P1;HPM_P2
2023/04/18 00:01:37;;;;;;;16.58;10.82;;;7.90;99.90;;;;;;5053943;28;20101;-82
2023/04/18 00:04:03;;;;;;;14.40;10.07;;;7.90;99.90;;;;;;5053918;28;20075;-83
2023/04/18 00:06:31;;;;;;;16.20;10.18;;;7.80;99.90;;;;;;5054010;28;20041;-83
2023/04/18 00:08:56;;;;;;;13.98;9.88;;;7.80;99.90;;;;;;5053562;28;20094;-81
2023/04/18 00:11:22;;;;;;;13.82;9.85;;;7.70;99.90;;;;;;5054084;28;20428;-82
2023/04/18 00:13:47;;;;;;;14.48;9.93;;;7.70;99.90;;;;;;5054259;28;20563;-82
2023/04/18 00:16:13;;;;;;;17.63;10.50;;;7.70;99.90;;;;;;5055090;28;20040;-83
2023/04/18 00:18:39;;;;;;;14.40;9.45;;;7.60;99.90;;;;;;5053897;28;20037;-83
2023/04/18 00:21:08;;;;;;;14.95;9.77;;;7.60;99.90;;;;;;5054115;28;20102;-83
2023/04/18 00:23:34;;;;;;;14.35;9.95;;;7.50;99.90;;;;;;5053974;28;20098;-83
2023/04/18 00:26:00;;;;;;;13.77;8.65;;;7.50;99.90;;;;;;5053604;28;20041;-81
2023/04/18 00:28:26;;;;;;;15.70;9.20;;;7.40;99.90;;;;;;5053358;28;20060;-83
2023/04/18 00:30:51;;;;;;;13.38;8.93;;;7.40;99.90;;;;;;5053282;28;20438;-83
2023/04/18 00:33:17;;;;;;;13.18;9.15;;;7.30;99.90;;;;;;5036817;28;20037;-82
2023/04/18 00:35:43;;;;;;;11.15;8.40;;;7.30;99.90;;;;;;5053201;28;20044;-83
2023/04/18 00:38:08;;;;;;;12.90;9.18;;;7.30;99.90;;;;;;5053130;28;20488;-82
2023/04/18 00:40:35;;;;;;;11.98;8.38;;;7.20;99.90;;;;;;5052457;28;20049;-83
2023/04/18 00:43:01;;;;;;;12.73;8.57;;;7.20;99.90;;;;;;5053594;28;20518;-82
2023/04/18 00:45:27;;;;;;;10.70;8.00;;;7.20;99.90;;;;;;5053006;28;20056;-82
2023/04/18 00:47:54;;;;;;;11.80;8.57;;;7.20;99.90;;;;;;5054565;28;20037;-82
2023/04/18 00:50:21;;;;;;;11.65;8.50;;;7.20;99.90;;;;;;5054960;28;20041;-81
2023/04/18 00:52:47;;;;;;;12.13;8.35;;;7.20;99.90;;;;;;5054429;28;20493;-81
2023/04/18 00:55:12;;;;;;;11.13;8.35;;;7.20;99.90;;;;;;5053088;28;20048;-82
2023/04/18 00:57:39;;;;;;;12.88;9.55;;;7.10;99.90;;;;;;5052711;28;20052;-81
2023/04/18 01:00:08;;;;;;;11.52;8.57;;;7.10;99.90;;;;;;5052999;28;20049;-82
2023/04/18 01:02:34;;;;;;;12.95;9.48;;;7.10;99.90;;;;;;5052814;28;20095;-84
2023/04/18 01:05:01;;;;;;;14.63;9.80;;;7.10;99.90;;;;;;5052834;28;20037;-83
2023/04/18 01:07:29;;;;;;;13.18;9.65;;;7.10;99.90;;;;;;5053126;28;20048;-83
2023/04/18 01:09:55;;;;;;;13.75;9.77;;;7.10;99.90;;;;;;5052579;28;20048;-81
2023/04/18 01:12:20;;;;;;;15.13;9.55;;;7.00;99.90;;;;;;5054143;28;20045;-82
2023/04/18 01:14:46;;;;;;;13.18;9.35;;;7.00;99.90;;;;;;5052410;28;20128;-82
2023/04/18 01:17:12;;;;;;;13.65;9.23;;;7.00;99.90;;;;;;5052328;28;20068;-82
2023/04/18 01:19:38;;;;;;;12.77;8.43;;;6.90;99.90;;;;;;5052333;28;20068;-81
2023/04/18 01:22:04;;;;;;;11.95;9.02;;;7.00;99.90;;;;;;5052693;28;20041;-82
2023/04/18 01:24:30;;;;;;;12.93;8.68;;;6.90;99.90;;;;;;5052299;28;20114;-82
2023/04/18 01:26:56;;;;;;;13.80;9.70;;;6.90;99.90;;;;;;5054148;28;20087;-81
2023/04/18 01:29:22;;;;;;;13.93;8.95;;;6.90;99.90;;;;;;5052347;28;20048;-82
2023/04/18 01:31:47;;;;;;;12.18;9.00;;;6.90;99.90;;;;;;5070078;28;20454;-81
2023/04/18 01:34:13;;;;;;;13.43;9.38;;;6.90;99.90;;;;;;5070199;28;20071;-81
2023/04/18 01:36:39;;;;;;;13.30;9.23;;;6.80;99.90;;;;;;5052025;28;20094;-83
2023/04/18 01:39:05;;;;;;;14.68;10.15;;;6.80;99.90;;;;;;5053279;28;20052;-82
2023/04/18 01:41:31;;;;;;;14.30;9.75;;;6.80;99.90;;;;;;5052263;28;20049;-83
2023/04/18 01:43:57;;;;;;;13.80;8.60;;;6.80;99.90;;;;;;5051976;28;20052;-81
2023/04/18 01:46:23;;;;;;;14.30;9.85;;;6.70;99.90;;;;;;5051931;28;20089;-81
2023/04/18 01:48:49;;;;;;;15.38;10.07;;;6.70;99.90;;;;;;5051907;28;20127;-81
2023/04/18 01:51:14;;;;;;;14.05;9.10;;;6.70;99.90;;;;;;5052118;28;20507;-82
2023/04/18 01:53:40;;;;;;;12.50;8.98;;;6.70;99.90;;;;;;5052135;28;20472;-81
2023/04/18 01:56:06;;;;;;;12.80;9.13;;;6.70;99.90;;;;;;5052765;28;20051;-81
2023/04/18 01:58:31;;;;;;;14.13;8.85;;;6.70;99.90;;;;;;5051952;28;20045;-81
2023/04/18 02:00:57;;;;;;;15.95;9.15;;;6.60;99.90;;;;;;5052066;28;20124;-82
2023/04/18 02:03:23;;;;;;;13.88;8.95;;;6.60;99.90;;;;;;5051881;28;20095;-80
2023/04/18 02:05:49;;;;;;;13.10;8.93;;;6.60;99.90;;;;;;5035304;28;20090;-82
2023/04/18 02:08:15;;;;;;;12.07;8.75;;;6.60;99.90;;;;;;5051708;28;20033;-83
2023/04/18 02:10:41;;;;;;;11.02;8.30;;;6.60;99.90;;;;;;5052918;28;20120;-81
2023/04/18 02:13:07;;;;;;;10.85;8.07;;;6.60;99.90;;;;;;5051586;28;20072;-82
2023/04/18 02:15:32;;;;;;;13.45;8.98;;;6.60;99.90;;;;;;5052526;28;20071;-81
2023/04/18 02:18:01;;;;;;;11.80;8.68;;;6.50;99.90;;;;;;5052680;28;20089;-80
2023/04/18 02:20:32;;;;;;;10.60;8.00;;;6.50;99.90;;;;;;5052943;28;20463;-81
2023/04/18 02:22:59;;;;;;;11.05;7.80;;;6.60;99.90;;;;;;5052874;28;20040;-81
2023/04/18 02:25:26;;;;;;;11.23;7.85;;;6.50;99.90;;;;;;5051659;28;20117;-81
2023/04/18 02:27:53;;;;;;;10.85;8.05;;;6.60;99.90;;;;;;5051253;28;20041;-82
2023/04/18 02:30:19;;;;;;;11.35;7.65;;;6.60;99.90;;;;;;5051896;28;20469;-82
2023/04/18 02:32:44;;;;;;;11.93;7.70;;;6.70;99.90;;;;;;5051708;28;20068;-81
2023/04/18 02:35:11;;;;;;;11.05;7.22;;;6.70;99.90;;;;;;5052209;28;20037;-82
2023/04/18 02:37:37;;;;;;;10.07;7.25;;;6.80;99.90;;;;;;5051150;28;20045;-82
2023/04/18 02:40:03;;;;;;;12.02;7.90;;;6.80;99.90;;;;;;5051455;28;20508;-82
2023/04/18 02:42:30;;;;;;;10.90;7.00;;;6.90;99.90;;;;;;5052330;28;20439;-82
2023/04/18 02:44:56;;;;;;;10.85;7.40;;;6.90;99.90;;;;;;5051168;28;20112;-82
2023/04/18 02:47:21;;;;;;;11.23;7.40;;;6.90;99.90;;;;;;5051222;28;20167;-82
2023/04/18 02:49:47;;;;;;;10.50;7.15;;;7.00;99.90;;;;;;5051277;28;20040;-82
2023/04/18 02:52:12;;;;;;;9.70;6.93;;;7.00;99.90;;;;;;5051071;28;20120;-82
2023/04/18 02:54:38;;;;;;;11.45;7.28;;;7.00;99.90;;;;;;5050851;28;20117;-82
2023/04/18 02:57:04;;;;;;;8.95;6.75;;;7.00;99.90;;;;;;5066518;28;20036;-81
2023/04/18 02:59:29;;;;;;;9.73;6.78;;;7.10;99.90;;;;;;5051022;28;20045;-82
2023/04/18 03:01:55;;;;;;;9.55;6.50;;;7.00;99.90;;;;;;5050671;28;20049;-82
2023/04/18 03:04:20;;;;;;;9.85;6.57;;;7.10;99.90;;;;;;5051841;28;20044;-82
2023/04/18 03:06:47;;;;;;;10.57;6.95;;;7.10;99.90;;;;;;5051906;28;20040;-82
2023/04/18 03:09:13;;;;;;;8.93;6.35;;;7.10;99.90;;;;;;5052655;28;20445;-82
2023/04/18 03:11:38;;;;;;;9.73;6.32;;;7.10;99.90;;;;;;5033899;28;20128;-82
2023/04/18 03:14:04;;;;;;;9.43;6.47;;;7.10;99.90;;;;;;5051978;28;20048;-81
2023/04/18 03:16:31;;;;;;;10.05;6.20;;;7.10;99.90;;;;;;5050866;28;20036;-81
2023/04/18 03:18:56;;;;;;;9.73;6.30;;;7.20;99.90;;;;;;5050647;28;20045;-82
2023/04/18 03:21:22;;;;;;;9.05;5.55;;;7.10;99.90;;;;;;5050782;28;20131;-82
2023/04/18 03:23:47;;;;;;;9.68;6.22;;;7.10;99.90;;;;;;5050814;28;20053;-81
2023/04/18 03:26:13;;;;;;;9.27;5.97;;;7.10;99.90;;;;;;5050714;28;20037;-81
2023/04/18 03:28:39;;;;;;;8.38;5.82;;;7.10;99.90;;;;;;5033418;28;20045;-81
2023/04/18 03:31:05;;;;;;;8.25;6.18;;;7.10;99.90;;;;;;5050026;28;20131;-82
2023/04/18 03:33:30;;;;;;;8.63;5.72;;;7.10;99.90;;;;;;5050267;28;20069;-81
2023/04/18 03:35:56;;;;;;;7.32;5.95;;;7.10;99.90;;;;;;5051449;28;20489;-81
2023/04/18 03:38:21;;;;;;;10.55;6.03;;;7.00;99.90;;;;;;5050145;28;20102;-82
2023/04/18 03:40:47;;;;;;;8.90;6.10;;;7.00;99.90;;;;;;5051428;28;20507;-83
2023/04/18 03:43:13;;;;;;;8.35;5.80;;;7.00;99.90;;;;;;5052007;28;20033;-82
2023/04/18 03:45:39;;;;;;;7.95;6.07;;;7.00;99.90;;;;;;5054006;28;20548;-81
2023/04/18 03:48:06;;;;;;;8.00;5.95;;;6.90;99.90;;;;;;5055457;28;20130;-83
2023/04/18 03:50:31;;;;;;;10.20;6.15;;;6.90;99.90;;;;;;5055269;28;20043;-83
2023/04/18 03:52:57;;;;;;;9.10;6.53;;;6.90;99.90;;;;;;5053602;28;20548;-82
2023/04/18 03:55:25;;;;;;;8.77;6.18;;;6.90;99.90;;;;;;5057939;28;20052;-82
2023/04/18 03:57:50;;;;;;;8.60;5.88;;;6.90;99.90;;;;;;5064159;28;20134;-82
2023/04/18 04:00:16;;;;;;;9.05;6.00;;;6.90;99.90;;;;;;5053694;28;20444;-81
2023/04/18 04:02:43;;;;;;;7.55;5.78;;;6.80;99.90;;;;;;5054018;28;20049;-81
2023/04/18 04:05:08;;;;;;;9.05;5.95;;;6.80;99.90;;;;;;5053394;28;20128;-84
2023/04/18 04:07:34;;;;;;;8.23;5.63;;;6.90;99.90;;;;;;5052944;28;20037;-83
2023/04/18 04:10:00;;;;;;;9.75;5.28;;;6.90;99.90;;;;;;5053000;28;20048;-82
2023/04/18 04:12:26;;;;;;;7.50;5.30;;;6.90;99.90;;;;;;5054532;28;20075;-84
2023/04/18 04:14:51;;;;;;;8.35;5.50;;;6.90;99.90;;;;;;5052892;28;20072;-82
2023/04/18 04:17:17;;;;;;;10.18;5.78;;;6.90;99.90;;;;;;5053739;28;20051;-81
2023/04/18 04:19:43;;;;;;;7.80;5.45;;;6.90;99.90;;;;;;5053836;28;20033;-83
2023/04/18 04:22:09;;;;;;;8.55;6.00;;;6.90;99.90;;;;;;5053685;28;20043;-85
2023/04/18 04:24:37;;;;;;;7.43;5.32;;;7.00;99.90;;;;;;5052402;28;20306;-83
2023/04/18 04:27:04;;;;;;;7.60;5.35;;;7.00;99.90;;;;;;5052352;28;20052;-84
2023/04/18 04:29:29;;;;;;;7.60;5.45;;;7.00;99.90;;;;;;5036375;28;20048;-84
2023/04/18 04:31:55;;;;;;;8.27;5.90;;;7.00;99.90;;;;;;5054374;28;20049;-83
2023/04/18 04:34:20;;;;;;;8.13;5.75;;;7.00;99.90;;;;;;5052401;28;20121;-84
2023/04/18 04:36:47;;;;;;;8.13;5.93;;;7.00;99.90;;;;;;5052279;28;20469;-83
2023/04/18 04:39:16;;;;;;;7.28;5.47;;;7.00;99.90;;;;;;5051954;28;20064;-84
2023/04/18 04:41:42;;;;;;;7.60;5.70;;;7.00;99.90;;;;;;5052089;28;20049;-85
2023/04/18 04:44:08;;;;;;;7.00;5.35;;;7.10;99.90;;;;;;5052056;28;20052;-83
2023/04/18 04:46:38;;;;;;;9.95;5.80;;;7.10;99.90;;;;;;5051856;28;20056;-84
2023/04/18 04:49:03;;;;;;;7.22;5.72;;;7.10;99.90;;;;;;5053471;28;20036;-85
2023/04/18 04:51:30;;;;;;;7.40;6.00;;;7.10;99.90;;;;;;5051774;28;20044;-84
2023/04/18 04:53:56;;;;;;;8.60;5.68;;;7.10;99.90;;;;;;5050971;28;20500;-83
2023/04/18 04:56:21;;;;;;;7.25;5.75;;;7.10;99.90;;;;;;5064117;28;20040;-84
2023/04/18 04:58:48;;;;;;;9.27;6.25;;;7.00;99.90;;;;;;5053338;28;20106;-84
2023/04/18 05:01:13;;;;;;;9.60;6.07;;;7.10;99.90;;;;;;5053165;28;20404;-84
2023/04/18 05:03:39;;;;;;;8.48;6.30;;;7.10;99.90;;;;;;5051723;28;20053;-83
2023/04/18 05:06:05;;;;;;;9.35;7.00;;;7.10;99.90;;;;;;5053179;28;20520;-84
2023/04/18 05:08:30;;;;;;;11.20;6.68;;;7.10;99.90;;;;;;5053035;28;20076;-85
2023/04/18 05:10:56;;;;;;;9.25;6.85;;;7.10;99.90;;;;;;5052909;28;20041;-83
2023/04/18 05:13:21;;;;;;;9.32;6.78;;;7.10;99.90;;;;;;5051443;28;20477;-84
2023/04/18 05:15:47;;;;;;;9.57;7.00;;;7.10;99.90;;;;;;5052693;28;20110;-85
2023/04/18 05:18:15;;;;;;;9.90;6.90;;;7.10;99.90;;;;;;5051104;28;20041;-84
2023/04/18 05:20:40;;;;;;;12.63;7.07;;;7.20;99.90;;;;;;5051147;28;20048;-84
2023/04/18 05:23:06;;;;;;;9.48;7.13;;;7.20;99.90;;;;;;5051654;28;20382;-84
2023/04/18 05:25:32;;;;;;;10.15;7.45;;;7.20;99.90;;;;;;5051280;28;20090;-84
2023/04/18 05:28:00;;;;;;;9.65;7.18;;;7.20;99.90;;;;;;5051350;28;20519;-84
2023/04/18 05:30:25;;;;;;;11.63;7.55;;;7.20;99.90;;;;;;5051297;28;20045;-84
2023/04/18 05:32:51;;;;;;;11.25;7.50;;;7.20;99.90;;;;;;5051679;28;20037;-83
2023/04/18 05:35:16;;;;;;;9.98;7.22;;;7.30;99.90;;;;;;5053472;28;20459;-83
2023/04/18 05:37:42;;;;;;;11.45;7.63;;;7.30;99.90;;;;;;5052115;28;20080;-84
2023/04/18 05:40:08;;;;;;;12.80;8.60;;;7.30;99.90;;;;;;5051144;28;20136;-84
2023/04/18 05:42:33;;;;;;;12.73;8.20;;;7.30;99.90;;;;;;5052288;28;20040;-86
2023/04/18 05:44:59;;;;;;;12.18;7.70;;;7.40;99.90;;;;;;5052893;28;20116;-84
2023/04/18 05:47:27;;;;;;;10.93;7.45;;;7.40;99.90;;;;;;5051191;28;20465;-84
2023/04/18 05:49:53;;;;;;;10.90;8.02;;;7.40;99.90;;;;;;5050773;28;20465;-84
2023/04/18 05:52:19;;;;;;;12.30;8.23;;;7.50;99.90;;;;;;5052431;28;20443;-82
2023/04/18 05:54:44;;;;;;;10.85;7.80;;;7.50;99.90;;;;;;5050607;28;20041;-84
2023/04/18 05:57:10;;;;;;;12.05;7.90;;;7.60;99.90;;;;;;5064969;28;20029;-83
2023/04/18 05:59:36;;;;;;;13.05;8.88;;;7.60;99.90;;;;;;5050898;28;20392;-84
2023/04/18 06:02:01;;;;;;;16.13;9.15;;;7.60;99.90;;;;;;5050832;28;20090;-83
2023/04/18 06:04:27;;;;;;;11.27;8.57;;;7.70;99.90;;;;;;5050795;28;20040;-83
2023/04/18 06:06:52;;;;;;;12.85;8.40;;;7.70;99.90;;;;;;5050245;28;20052;-82
2023/04/18 06:09:18;;;;;;;11.00;8.55;;;7.80;99.90;;;;;;5050758;28;20078;-83
2023/04/18 06:11:43;;;;;;;11.80;7.60;;;7.90;99.90;;;;;;5050460;28;20493;-84
2023/04/18 06:14:09;;;;;;;11.82;8.80;;;8.10;99.90;;;;;;5050710;28;20044;-84
2023/04/18 06:16:37;;;;;;;11.75;8.82;;;8.20;99.90;;;;;;5034610;28;20041;-84
2023/04/18 06:19:04;;;;;;;11.65;8.50;;;8.30;99.90;;;;;;5052066;28;20516;-84
2023/04/18 06:21:30;;;;;;;12.05;8.57;;;8.40;99.90;;;;;;5054811;28;20124;-83
2023/04/18 06:23:56;;;;;;;12.00;8.13;;;8.40;99.90;;;;;;5050419;28;20048;-84
2023/04/18 06:26:21;;;;;;;12.65;8.60;;;8.50;99.90;;;;;;5050132;28;20032;-83
2023/04/18 06:28:47;;;;;;;11.82;8.55;;;8.40;99.90;;;;;;5050298;28;20045;-83
2023/04/18 06:31:12;;;;;;;13.55;7.50;;;8.50;99.90;;;;;;5050712;28;20041;-84
2023/04/18 06:33:38;;;;;;;12.95;7.88;;;8.60;99.90;;;;;;5050471;28;20077;-83
2023/04/18 06:36:04;;;;;;;9.90;7.70;;;8.70;99.90;;;;;;5050943;28;20120;-82
2023/04/18 06:38:31;;;;;;;11.13;7.88;;;8.80;99.90;;;;;;5051265;28;20044;-83
2023/04/18 06:40:56;;;;;;;13.00;8.60;;;8.80;99.90;;;;;;5052450;28;20440;-83
2023/04/18 06:43:22;;;;;;;13.15;7.70;;;8.80;99.90;;;;;;5051070;28;20056;-82
2023/04/18 06:45:47;;;;;;;11.00;7.70;;;8.90;99.90;;;;;;5052505;28;20043;-82
2023/04/18 06:48:13;;;;;;;10.82;7.25;;;8.90;99.90;;;;;;5050602;28;20072;-82
2023/04/18 06:50:38;;;;;;;13.77;7.43;;;9.00;99.90;;;;;;5052043;28;20450;-85
2023/04/18 06:53:04;;;;;;;11.68;7.88;;;9.10;99.90;;;;;;5052972;28;20037;-83
2023/04/18 06:55:30;;;;;;;9.45;7.20;;;9.10;99.90;;;;;;5058952;28;20504;-84
2023/04/18 06:57:55;;;;;;;10.75;7.00;;;9.10;99.90;;;;;;5061423;28;20044;-84
2023/04/18 07:00:21;;;;;;;14.05;7.20;;;9.20;99.90;;;;;;5051199;28;20036;-84
2023/04/18 07:02:47;;;;;;;11.45;7.25;;;9.20;99.90;;;;;;5052098;28;20072;-84
2023/04/18 07:05:13;;;;;;;11.48;7.72;;;9.30;99.90;;;;;;5051450;28;20043;-83
2023/04/18 07:07:39;;;;;;;9.18;7.03;;;9.30;99.90;;;;;;5053678;28;20037;-82
2023/04/18 07:10:05;;;;;;;10.27;7.60;;;9.30;99.90;;;;;;5051801;28;20041;-81
2023/04/18 07:12:31;;;;;;;13.40;7.57;;;9.30;99.90;;;;;;5052068;28;20516;-83
2023/04/18 07:14:56;;;;;;;15.18;7.50;;;9.30;99.90;;;;;;5051733;28;20040;-81
2023/04/18 07:17:22;;;;;;;10.50;7.10;;;9.40;99.90;;;;;;5053701;28;20044;-82
2023/04/18 07:19:48;;;;;;;8.95;6.90;;;9.40;99.90;;;;;;5054617;28;20036;-83
2023/04/18 07:22:13;;;;;;;13.10;8.25;;;9.50;99.90;;;;;;5055548;28;20041;-84
2023/04/18 07:24:39;;;;;;;9.90;7.00;;;9.50;99.90;;;;;;5038772;28;20040;-83
2023/04/18 07:27:05;;;;;;;11.77;7.68;;;9.60;99.90;;;;;;5054910;28;20053;-84
2023/04/18 07:29:31;;;;;;;10.27;7.07;;;9.70;99.90;;;;;;5055090;28;20068;-83
2023/04/18 07:31:57;;;;;;;10.32;7.28;;;9.80;99.90;;;;;;5054876;28;20064;-82
2023/04/18 07:34:24;;;;;;;10.63;7.57;;;10.00;99.90;;;;;;5056437;28;20553;-83
2023/04/18 07:36:50;;;;;;;10.85;7.00;;;10.10;99.90;;;;;;5055309;28;20060;-83
2023/04/18 07:39:16;;;;;;;11.85;7.00;;;10.20;99.90;;;;;;5056520;28;20045;-83
2023/04/18 07:41:41;;;;;;;9.80;7.28;;;10.20;99.90;;;;;;5056063;28;20029;-83
2023/04/18 07:44:07;;;;;;;12.40;7.22;;;10.30;99.90;;;;;;5054526;28;20428;-83
2023/04/18 07:46:32;;;;;;;11.27;7.20;;;10.40;99.90;;;;;;5056283;28;20122;-81
2023/04/18 07:48:58;;;;;;;11.30;7.90;;;10.40;99.90;;;;;;5056718;28;20087;-82
2023/04/18 07:51:30;;;;;;;13.02;7.75;;;10.50;99.90;;;;;;5055795;28;20504;-84
2023/04/18 07:53:56;;;;;;;11.10;7.40;;;10.60;99.90;;;;;;5055081;28;20047;-83
2023/04/18 07:56:21;;;;;;;13.15;8.00;;;10.60;99.90;;;;;;5067197;28;20044;-83
2023/04/18 07:58:47;;;;;;;10.75;8.00;;;10.70;99.90;;;;;;5056622;28;20109;-80
2023/04/18 08:01:14;;;;;;;12.77;7.97;;;10.80;99.90;;;;;;5057132;28;20048;-81
2023/04/18 08:03:40;;;;;;;11.27;7.63;;;10.80;99.90;;;;;;5056161;28;20158;-83
2023/04/18 08:06:06;;;;;;;11.48;7.47;;;10.80;99.90;;;;;;5056350;28;20051;-83
2023/04/18 08:08:31;;;;;;;12.07;7.97;;;10.80;99.90;;;;;;5057256;28;20045;-83
2023/04/18 08:10:57;;;;;;;13.05;8.38;;;10.80;99.90;;;;;;5056783;28;20033;-82
2023/04/18 08:13:22;;;;;;;10.65;7.68;;;10.80;99.90;;;;;;5058393;28;20539;-81
2023/04/18 08:15:48;;;;;;;11.25;7.60;;;10.80;99.90;;;;;;5056731;28;20048;-81
2023/04/18 08:18:13;;;;;;;12.35;7.32;;;11.00;99.90;;;;;;5057236;28;20067;-81
2023/04/18 08:20:39;;;;;;;11.05;7.97;;;11.10;99.90;;;;;;5056013;28;20033;-81
2023/04/18 08:23:06;;;;;;;12.18;6.88;;;11.30;99.90;;;;;;5056762;28;20045;-81
2023/04/18 08:25:32;;;;;;;11.50;7.32;;;11.40;99.90;;;;;;5057286;28;20037;-83
2023/04/18 08:27:57;;;;;;;12.02;7.35;;;11.50;99.90;;;;;;5055662;28;20048;-83
2023/04/18 08:30:23;;;;;;;13.30;7.22;;;11.60;99.90;;;;;;5056548;28;20130;-83
2023/04/18 08:32:48;;;;;;;9.55;7.35;;;11.70;99.90;;;;;;5055251;28;20035;-81
2023/04/18 08:35:14;;;;;;;13.38;8.10;;;11.70;99.90;;;;;;5056681;28;20137;-81
2023/04/18 08:37:40;;;;;;;11.48;7.97;;;11.80;99.90;;;;;;5055499;28;20045;-82
2023/04/18 08:40:06;;;;;;;14.52;7.40;;;11.90;99.90;;;;;;5055777;28;20037;-82
2023/04/18 08:42:32;;;;;;;11.02;7.65;;;11.90;99.90;;;;;;5054768;28;20048;-82
2023/04/18 08:44:59;;;;;;;12.07;6.97;;;12.00;99.90;;;;;;5055523;28;20484;-81
2023/04/18 08:47:25;;;;;;;11.25;7.22;;;12.10;99.90;;;;;;5055364;28;20053;-83
2023/04/18 08:49:52;;;;;;;9.75;7.40;;;12.20;99.90;;;;;;5054215;28;20041;-82
2023/04/18 08:52:21;;;;;;;12.15;7.90;;;12.20;99.90;;;;;;5055314;28;20041;-82
2023/04/18 08:54:48;;;;;;;9.80;7.72;;;12.20;99.90;;;;;;5055078;28;20041;-83
2023/04/18 08:57:15;;;;;;;12.25;7.88;;;12.20;99.90;;;;;;5068845;28;20037;-83
2023/04/18 08:59:44;;;;;;;12.90;7.90;;;12.20;99.90;;;;;;5055354;28;20045;-83
2023/04/18 09:02:14;;;;;;;13.35;8.27;;;12.20;99.90;;;;;;5054637;28;20069;-82
2023/04/18 09:04:44;;;;;;;10.68;7.65;;;12.30;99.90;;;;;;5056758;28;20404;-82
2023/04/18 09:07:17;;;;;;;11.20;7.85;;;12.40;99.90;;;;;;5057917;28;20400;-82
2023/04/18 09:09:45;;;;;;;12.48;7.93;;;12.40;99.90;;;;;;5056508;28;20099;-82
2023/04/18 09:12:25;;;;;;;13.90;7.78;;;12.60;99.90;;;;;;5056966;28;20065;-82
2023/04/18 09:14:56;;;;;;;13.52;8.52;;;12.50;99.90;;;;;;5058959;28;20051;-81
2023/04/18 09:17:32;;;;;;;11.35;7.72;;;12.60;99.90;;;;;;5057477;28;20501;-83
2023/04/18 09:19:59;;;;;;;13.77;7.90;;;12.60;99.90;;;;;;5057654;28;20131;-82
2023/04/18 09:22:25;;;;;;;10.98;7.88;;;12.70;99.90;;;;;;5058160;28;20566;-83
2023/04/18 09:24:54;;;;;;;10.52;7.82;;;12.70;99.90;;;;;;5057535;28;20049;-82
2023/04/18 09:27:21;;;;;;;14.43;8.10;;;12.80;99.90;;;;;;5057093;28;20039;-85
2023/04/18 09:29:53;;;;;;;14.60;8.40;;;12.80;99.90;;;;;;5058858;28;20045;-82
2023/04/18 09:32:27;;;;;;;14.90;8.00;;;12.90;99.90;;;;;;5056221;28;20174;-84
2023/04/18 09:35:00;;;;;;;11.40;8.15;;;12.90;99.90;;;;;;5058354;28;20056;-83
2023/04/18 09:37:26;;;;;;;10.57;8.23;;;13.00;99.90;;;;;;5057432;28;20033;-83
2023/04/18 09:39:53;;;;;;;10.25;8.07;;;13.00;99.90;;;;;;5056765;28;20094;-82
2023/04/18 09:42:19;;;;;;;11.30;7.93;;;13.00;99.90;;;;;;5057039;28;20059;-84
2023/04/18 09:44:58;;;;;;;12.35;9.13;;;13.10;99.90;;;;;;5052620;28;20045;-83
2023/04/18 09:47:25;;;;;;;10.55;7.70;;;13.10;99.90;;;;;;5052730;28;20041;-82
2023/04/18 09:49:51;;;;;;;10.30;7.93;;;13.20;99.90;;;;;;5052755;28;20037;-84
2023/04/18 09:52:18;;;;;;;13.25;7.78;;;13.30;99.90;;;;;;5052827;28;20041;-82
2023/04/18 09:54:52;;;;;;;12.15;7.78;;;13.20;99.90;;;;;;5054058;28;20088;-82
2023/04/18 09:57:18;;;;;;;10.45;8.18;;;13.20;99.90;;;;;;5053313;28;20072;-83
2023/04/18 09:59:53;;;;;;;9.45;7.38;;;13.20;99.90;;;;;;5052887;28;20051;-83
2023/04/18 10:02:21;;;;;;;11.85;7.60;;;13.30;99.90;;;;;;5058791;28;20068;-81
2023/04/18 10:04:48;;;;;;;12.57;8.45;;;13.40;99.90;;;;;;5054121;28;20045;-81
2023/04/18 10:07:16;;;;;;;11.20;8.25;;;13.50;99.90;;;;;;5055704;28;20413;-81
2023/04/18 10:09:45;;;;;;;11.60;7.95;;;13.60;99.90;;;;;;5054958;28;20101;-81
2023/04/18 10:12:12;;;;;;;13.50;8.50;;;13.70;99.90;;;;;;5054462;28;20055;-81
2023/04/18 10:14:44;;;;;;;10.98;7.45;;;13.60;99.90;;;;;;5053286;28;20063;-81
2023/04/18 10:17:10;;;;;;;11.15;8.00;;;13.70;99.90;;;;;;5053566;28;20139;-82
2023/04/18 10:19:40;;;;;;;11.20;7.55;;;13.70;99.90;;;;;;5055135;28;20049;-82
2023/04/18 10:22:06;;;;;;;12.40;7.50;;;13.70;99.90;;;;;;5055517;28;20033;-83
2023/04/18 10:24:48;;;;;;;9.20;7.50;;;13.80;99.90;;;;;;5053673;28;20043;-82
2023/04/18 10:27:15;;;;;;;10.00;6.85;;;13.90;99.90;;;;;;5053499;28;20069;-82
2023/04/18 10:29:52;;;;;;;12.90;8.30;;;14.00;99.90;;;;;;5054826;28;20393;-80
2023/04/18 10:32:22;;;;;;;10.90;7.50;;;14.00;99.90;;;;;;5053501;28;20405;-82
2023/04/18 10:34:48;;;;;;;13.32;7.72;;;14.10;99.90;;;;;;5052226;28;20048;-80
2023/04/18 10:37:14;;;;;;;9.38;6.88;;;14.10;99.90;;;;;;5052763;28;20037;-80
2023/04/18 10:40:01;;;;;;;12.77;8.18;;;14.20;99.90;;;;;;5054193;28;20064;-82
2023/04/18 10:42:46;;;;;;;9.05;6.60;;;14.30;99.90;;;;;;5054255;28;20049;-81
2023/04/18 10:45:30;;;;;;;9.88;7.00;;;14.40;99.90;;;;;;5052670;28;20041;-78
2023/04/18 10:48:14;;;;;;;;;;;14.50;99.90;;;;;;5053283;28;20056;-80
2023/04/18 10:51:17;;;;;;;10.63;6.20;;;14.40;99.90;;;;;;5052680;28;20406;-81
2023/04/18 10:53:51;;;;;;;9.02;6.78;;;14.50;99.90;;;;;;5055532;28;20090;-81
2023/04/18 10:56:17;;;;;;;7.38;6.20;;;14.70;99.90;;;;;;5070048;28;20075;-79
2023/04/18 10:58:50;;;;;;;8.45;6.43;;;14.80;99.90;;;;;;5060750;28;20037;-80
2023/04/18 11:01:25;;;;;;;10.18;6.70;;;15.00;99.90;;;;;;5058792;28;20045;-80
2023/04/18 11:03:52;;;;;;;8.00;6.38;;;15.00;99.90;;;;;;5041300;28;20080;-80
2023/04/18 11:06:17;;;;;;;8.20;6.65;;;14.90;99.90;;;;;;5057765;28;20045;-80
2023/04/18 11:08:43;;;;;;;7.68;6.43;;;14.90;99.90;;;;;;5056693;28;20056;-82
2023/04/18 11:11:10;;;;;;;8.32;6.10;;;14.90;99.90;;;;;;5056992;28;20040;-81
2023/04/18 11:13:36;;;;;;;10.63;6.25;;;15.00;99.90;;;;;;5058418;28;20163;-80
2023/04/18 11:16:02;;;;;;;7.90;6.13;;;15.20;99.90;;;;;;5058437;28;20045;-80
2023/04/18 11:18:39;;;;;;;8.93;6.30;;;15.40;99.90;;;;;;5056941;28;20147;-80
2023/04/18 11:21:05;;;;;;;6.95;5.80;;;15.30;99.90;;;;;;5056497;28;20044;-80
2023/04/18 11:23:31;;;;;;;7.65;5.75;;;15.10;99.90;;;;;;5056350;28;20041;-80
2023/04/18 11:25:57;;;;;;;9.80;5.97;;;15.00;99.90;;;;;;5055883;28;20040;-81
2023/04/18 11:28:26;;;;;;;10.23;6.65;;;15.20;99.90;;;;;;5057592;28;20051;-79
2023/04/18 11:30:57;;;;;;;9.50;6.78;;;15.30;99.90;;;;;;5057495;28;20036;-80
2023/04/18 11:33:27;;;;;;;9.70;6.53;;;15.40;99.90;;;;;;5058495;28;20464;-82
2023/04/18 11:35:57;;;;;;;10.90;6.63;;;15.50;99.90;;;;;;5057930;28;20087;-81
2023/04/18 11:38:29;;;;;;;11.23;6.65;;;15.60;99.90;;;;;;5059074;28;20094;-80
2023/04/18 11:40:55;;;;;;;9.27;6.68;;;15.60;99.90;;;;;;5056164;28;20053;-81
2023/04/18 11:43:23;;;;;;;9.27;6.25;;;15.60;99.90;;;;;;5058961;28;20385;-82
2023/04/18 11:45:56;;;;;;;8.23;6.05;;;15.80;99.90;;;;;;5057191;28;20033;-80
2023/04/18 11:48:23;;;;;;;8.32;6.00;;;15.80;99.90;;;;;;5056306;28;20056;-82
2023/04/18 11:50:49;;;;;;;8.35;6.18;;;15.90;99.90;;;;;;5057326;28;20485;-80
2023/04/18 11:53:37;;;;;;;8.18;5.80;;;16.10;99.90;;;;;;5056106;28;20041;-81
2023/04/18 11:56:04;;;;;;;7.57;5.60;;;16.40;99.90;;;;;;5068525;28;20036;-81
2023/04/18 11:58:34;;;;;;;9.07;5.65;;;16.10;99.90;;;;;;5061490;28;20566;-82
2023/04/18 12:01:24;;;;;;;9.95;6.82;;;15.80;99.90;;;;;;5057014;28;20107;-82
2023/04/18 12:04:06;;;;;;;8.45;6.50;;;15.90;99.90;;;;;;5070071;28;20056;-82
2023/04/18 12:06:55;;;;;;;6.05;5.13;;;16.20;99.90;;;;;;5057767;28;20037;-82
2023/04/18 12:09:23;;;;;;;7.82;5.55;;;16.30;99.90;;;;;;5056279;28;20056;-79
2023/04/18 12:11:59;;;;;;;7.15;5.13;;;16.30;99.90;;;;;;5056760;28;20484;-82
2023/04/18 12:14:26;;;;;;;6.32;4.68;;;16.60;99.90;;;;;;5058500;28;20043;-82
2023/04/18 12:16:51;;;;;;;5.55;3.97;;;16.50;99.90;;;;;;5057833;28;20052;-81
2023/04/18 12:19:19;;;;;;;5.60;3.78;;;16.50;99.90;;;;;;5058421;28;20036;-82
2023/04/18 12:22:05;;;;;;;5.43;4.30;;;16.40;99.90;;;;;;5057989;28;20060;-81
2023/04/18 12:24:31;;;;;;;5.20;3.88;;;16.00;99.90;;;;;;5057572;28;20058;-81
2023/04/18 12:26:57;;;;;;;5.22;3.70;;;16.10;99.90;;;;;;5056771;28;20045;-82
2023/04/18 12:29:23;;;;;;;4.97;3.33;;;16.00;99.90;;;;;;5056187;28;20045;-82
2023/04/18 12:31:49;;;;;;;4.72;4.03;;;15.80;99.90;;;;;;5056703;28;20041;-82
2023/04/18 12:34:15;;;;;;;5.85;4.03;;;16.00;99.90;;;;;;5058472;28;20518;-83
2023/04/18 12:36:41;;;;;;;6.43;4.13;;;16.00;99.90;;;;;;5051230;28;20037;-83
2023/04/18 12:39:06;;;;;;;5.97;3.80;;;16.10;99.90;;;;;;5054685;28;20045;-82
2023/04/18 12:41:32;;;;;;;4.22;3.45;;;16.30;99.90;;;;;;5055383;28;20052;-83
2023/04/18 12:43:57;;;;;;;6.28;4.20;;;16.50;99.90;;;;;;5053950;28;20053;-83
2023/04/18 12:46:23;;;;;;;4.72;3.92;;;16.50;99.90;;;;;;5038189;28;20459;-82